createdAt,value
2022-08-07T00:00:26.222Z,22.60
2022-08-07T00:02:53.721Z,22.60
2022-08-07T00:05:23.749Z,22.60
2022-08-07T00:07:59.678Z,22.60
2022-08-07T00:10:29.706Z,22.60
2022-08-07T00:13:01.758Z,22.60
2022-08-07T00:15:38.047Z,22.60
2022-08-07T00:18:20.243Z,22.60
2022-08-07T00:20:57.413Z,22.50
2022-08-07T00:23:30.172Z,22.50
2022-08-07T00:26:01.614Z,22.40
2022-08-07T00:28:34.607Z,22.40
2022-08-07T00:31:16.612Z,22.40
2022-08-07T00:33:47.558Z,22.20
2022-08-07T00:36:14.963Z,22.20
2022-08-07T00:38:43.982Z,22.10
2022-08-07T00:41:14.965Z,22.10
2022-08-07T00:44:00.854Z,22.00
2022-08-07T00:46:30.984Z,22.00
2022-08-07T00:49:02.981Z,21.90
2022-08-07T00:51:56.711Z,21.90
2022-08-07T00:54:19.849Z,21.90
2022-08-07T00:56:49.823Z,21.90
2022-08-07T00:59:35.872Z,21.80
2022-08-07T01:02:08.761Z,21.80
2022-08-07T01:04:43.004Z,21.80
2022-08-07T01:07:11.732Z,21.80
2022-08-07T01:10:06.322Z,21.80
2022-08-07T01:12:29.690Z,21.80
2022-08-07T01:15:01.111Z,21.80
2022-08-07T01:17:31.366Z,21.80
2022-08-07T01:20:06.639Z,21.80
2022-08-07T01:22:36.767Z,21.80
2022-08-07T01:25:40.053Z,21.70
2022-08-07T01:27:52.729Z,21.80
2022-08-07T01:30:27.246Z,21.70
2022-08-07T01:32:54.778Z,21.70
2022-08-07T01:35:21.752Z,21.70
2022-08-07T01:37:52.436Z,21.70
2022-08-07T01:40:21.393Z,21.70
2022-08-07T01:42:58.847Z,21.60
2022-08-07T01:45:36.892Z,21.60
2022-08-07T01:48:20.438Z,21.60
2022-08-07T01:51:24.735Z,21.60
2022-08-07T01:54:12.160Z,21.60
2022-08-07T01:56:51.853Z,21.60
2022-08-07T01:59:31.137Z,21.50
2022-08-07T02:02:10.315Z,21.40
2022-08-07T02:04:56.454Z,21.40
2022-08-07T02:07:44.960Z,21.40
2022-08-07T02:10:18.970Z,21.40
2022-08-07T02:12:50.205Z,21.40
2022-08-07T02:15:22.591Z,21.40
2022-08-07T02:17:51.695Z,21.40
2022-08-07T02:20:23.418Z,21.40
2022-08-07T02:22:55.373Z,21.30
2022-08-07T02:26:10.081Z,21.30
2022-08-07T02:28:15.153Z,21.30
2022-08-07T02:30:53.869Z,21.20
2022-08-07T02:33:23.293Z,21.30
2022-08-07T02:36:28.205Z,21.20
2022-08-07T02:38:50.605Z,21.20
2022-08-07T02:41:25.077Z,21.10
2022-08-07T02:44:01.636Z,21.00
2022-08-07T02:46:31.210Z,21.00
2022-08-07T02:48:58.851Z,21.00
2022-08-07T02:51:42.962Z,21.00
2022-08-07T02:54:22.191Z,21.00
2022-08-07T02:56:53.859Z,21.10
2022-08-07T02:59:27.692Z,21.10
2022-08-07T03:01:55.765Z,21.20
2022-08-07T03:04:25.826Z,21.20
2022-08-07T03:06:54.376Z,21.20
2022-08-07T03:09:44.589Z,21.20
2022-08-07T03:12:21.624Z,21.20
2022-08-07T03:14:52.003Z,21.20
2022-08-07T03:17:22.055Z,21.20
2022-08-07T03:19:55.175Z,21.20
2022-08-07T03:22:24.065Z,21.30
2022-08-07T03:24:57.377Z,21.30
2022-08-07T03:27:25.315Z,21.20
2022-08-07T03:29:58.999Z,21.30
2022-08-07T03:32:31.471Z,21.30
2022-08-07T03:35:01.088Z,21.30
2022-08-07T03:37:56.443Z,21.20
2022-08-07T03:40:30.876Z,21.20
2022-08-07T03:43:04.091Z,21.20
2022-08-07T03:45:39.762Z,21.20
2022-08-07T03:48:11.620Z,21.20
2022-08-07T03:50:39.105Z,21.20
2022-08-07T03:53:10.750Z,21.20
2022-08-07T03:55:53.150Z,21.30
2022-08-07T03:59:06.817Z,21.30
2022-08-07T04:01:15.482Z,21.40
2022-08-07T04:03:53.831Z,21.40
2022-08-07T04:06:37.383Z,21.30
2022-08-07T04:09:06.060Z,21.30
2022-08-07T04:12:26.999Z,21.30
2022-08-07T04:14:37.457Z,21.40
2022-08-07T04:17:20.583Z,21.40
2022-08-07T04:19:51.848Z,21.50
2022-08-07T04:22:20.134Z,21.50
2022-08-07T04:24:51.022Z,21.50
2022-08-07T04:27:25.204Z,21.60
2022-08-07T04:30:02.098Z,21.70
2022-08-07T04:32:34.377Z,21.70
2022-08-07T04:35:05.539Z,21.80
2022-08-07T04:38:00.978Z,21.80
2022-08-07T04:40:21.105Z,21.80
2022-08-07T04:42:51.776Z,21.80
2022-08-07T04:45:44.529Z,21.80
2022-08-07T04:48:30.459Z,21.80
2022-08-07T04:51:09.026Z,21.80
2022-08-07T04:54:05.879Z,21.80
2022-08-07T04:58:12.482Z,21.80
2022-08-07T05:00:11.121Z,21.80
2022-08-07T05:03:31.110Z,21.70
2022-08-07T05:06:19.834Z,21.70
2022-08-07T05:09:42.888Z,21.70
2022-08-07T05:12:10.432Z,21.60
2022-08-07T05:14:58.091Z,21.70
2022-08-07T05:17:52.068Z,21.70
2022-08-07T05:20:25.749Z,21.80
2022-08-07T05:22:56.890Z,21.90
2022-08-07T05:26:10.583Z,21.90
2022-08-07T05:28:21.242Z,21.90
2022-08-07T05:30:53.364Z,22.00
2022-08-07T05:33:21.963Z,22.10
2022-08-07T05:35:53.029Z,22.10
2022-08-07T05:39:00.606Z,22.20
2022-08-07T05:41:14.388Z,22.30
2022-08-07T05:44:08.710Z,22.40
2022-08-07T05:46:36.482Z,22.40
2022-08-07T05:49:11.911Z,22.50
2022-08-07T05:51:42.324Z,22.50
2022-08-07T05:54:30.349Z,22.70
2022-08-07T05:56:59.002Z,22.70
2022-08-07T05:59:28.058Z,22.60
2022-08-07T06:01:57.432Z,22.70
2022-08-07T06:04:26.355Z,22.90
2022-08-07T06:07:03.866Z,22.80
2022-08-07T06:09:45.065Z,22.80
2022-08-07T06:12:31.682Z,22.90
2022-08-07T06:15:05.308Z,23.00
2022-08-07T06:17:37.505Z,23.00
2022-08-07T06:20:05.759Z,22.90
2022-08-07T06:22:38.870Z,22.90
2022-08-07T06:25:10.052Z,23.00
2022-08-07T06:27:44.057Z,23.10
2022-08-07T06:30:35.581Z,23.30
2022-08-07T06:33:04.951Z,23.50
2022-08-07T06:35:45.283Z,23.50
2022-08-07T06:38:20.676Z,23.70
2022-08-07T06:40:54.808Z,23.70
2022-08-07T06:43:27.393Z,23.70
2022-08-07T06:46:06.464Z,23.80
2022-08-07T06:48:41.852Z,23.70
2022-08-07T06:51:31.348Z,24.00
2022-08-07T06:55:30.155Z,24.00
2022-08-07T06:56:51.804Z,24.00
2022-08-07T07:00:13.247Z,24.40
2022-08-07T07:02:48.065Z,24.60
2022-08-07T07:05:05.765Z,24.70
2022-08-07T07:07:59.964Z,25.00
2022-08-07T07:10:29.583Z,25.10
2022-08-07T07:13:07.079Z,24.90
2022-08-07T07:15:51.505Z,23.90
2022-08-07T07:18:50.230Z,24.00
2022-08-07T07:21:40.554Z,24.00
2022-08-07T07:24:17.571Z,24.00
2022-08-07T07:26:51.683Z,24.10
2022-08-07T07:29:39.520Z,24.50
2022-08-07T07:32:13.941Z,24.70
2022-08-07T07:34:48.506Z,25.00
2022-08-07T07:37:45.438Z,24.70
2022-08-07T07:40:14.644Z,24.50
2022-08-07T07:42:50.905Z,24.70
2022-08-07T07:46:33.416Z,24.40
2022-08-07T07:48:12.623Z,24.40
2022-08-07T07:51:02.016Z,24.80
2022-08-07T07:53:30.566Z,24.70
2022-08-07T07:56:03.080Z,24.90
2022-08-07T07:58:40.386Z,25.20
2022-08-07T08:02:02.855Z,25.50
2022-08-07T08:04:09.965Z,25.60
2022-08-07T08:06:52.332Z,26.00
2022-08-07T08:09:24.288Z,26.50
2022-08-07T08:12:02.676Z,26.20
2022-08-07T08:14:34.345Z,26.40
2022-08-07T08:17:56.448Z,26.40
2022-08-07T08:20:17.030Z,26.60
2022-08-07T08:23:02.533Z,26.60
2022-08-07T08:25:52.286Z,26.80
2022-08-07T08:28:38.454Z,27.00
2022-08-07T08:31:15.917Z,27.40
2022-08-07T08:33:49.241Z,27.50
2022-08-07T08:36:25.483Z,27.70
2022-08-07T08:39:01.672Z,28.00
2022-08-07T08:41:57.268Z,27.80
2022-08-07T08:44:29.219Z,27.30
2022-08-07T08:47:14.265Z,27.40
2022-08-07T08:50:28.265Z,27.80
2022-08-07T08:53:13.492Z,28.50
2022-08-07T08:55:53.319Z,28.50
2022-08-07T08:58:36.192Z,28.20
2022-08-07T09:01:15.039Z,28.00
2022-08-07T09:03:56.678Z,27.80
2022-08-07T09:06:47.565Z,27.40
2022-08-07T09:09:21.056Z,27.30
2022-08-07T09:12:34.315Z,27.00
2022-08-07T09:16:22.203Z,27.30
2022-08-07T09:18:23.568Z,27.80
2022-08-07T09:21:57.640Z,28.50
2022-08-07T09:24:59.328Z,28.80
2022-08-07T09:28:00.782Z,28.40
2022-08-07T09:30:46.464Z,28.30
2022-08-07T09:33:40.934Z,28.50
2022-08-07T09:36:35.642Z,28.50
2022-08-07T09:39:54.115Z,28.60
2022-08-07T09:42:39.866Z,28.70
2022-08-07T09:47:27.511Z,28.40
2022-08-07T09:50:01.877Z,27.70
2022-08-07T09:52:34.056Z,27.70
2022-08-07T09:55:17.436Z,27.70
2022-08-07T09:58:18.844Z,27.90
2022-08-07T10:01:14.973Z,27.90
2022-08-07T10:04:14.246Z,27.90
2022-08-07T10:07:04.225Z,28.50
2022-08-07T10:10:01.050Z,28.80
2022-08-07T10:13:05.727Z,28.50
2022-08-07T10:15:44.372Z,28.70
2022-08-07T10:18:18.156Z,29.10
2022-08-07T10:21:50.510Z,29.50
2022-08-07T10:24:21.583Z,29.60
2022-08-07T10:27:46.877Z,29.40
2022-08-07T10:30:32.825Z,29.40
2022-08-07T10:34:05.805Z,29.50
2022-08-07T10:36:29.631Z,29.90
2022-08-07T10:39:25.687Z,30.30
2022-08-07T10:42:36.794Z,30.60
2022-08-07T10:45:16.608Z,30.80
2022-08-07T10:48:03.270Z,31.00
2022-08-07T10:50:57.286Z,30.90
2022-08-07T10:54:00.239Z,30.90
2022-08-07T10:56:42.291Z,30.90
2022-08-07T10:59:41.285Z,30.70
2022-08-07T11:02:34.355Z,30.50
2022-08-07T11:05:50.608Z,29.60
2022-08-07T11:08:43.819Z,29.20
2022-08-07T11:11:39.797Z,29.90
2022-08-07T11:14:45.853Z,30.20
2022-08-07T11:17:43.373Z,29.20
2022-08-07T11:20:40.543Z,28.50
2022-08-07T11:23:38.548Z,28.70
2022-08-07T11:26:23.211Z,28.90
2022-08-07T11:28:55.811Z,29.10
2022-08-07T11:31:39.436Z,29.00
2022-08-07T11:34:29.793Z,28.90
2022-08-07T11:37:11.775Z,28.70
2022-08-07T11:40:01.989Z,28.50
2022-08-07T11:42:38.476Z,28.60
2022-08-07T11:45:12.482Z,28.90
2022-08-07T11:47:58.870Z,29.10
2022-08-07T11:50:57.821Z,29.30
2022-08-07T11:53:35.276Z,29.60
2022-08-07T11:56:28.311Z,29.50
2022-08-07T12:00:10.940Z,29.30
2022-08-07T12:02:30.310Z,29.10
2022-08-07T12:05:08.989Z,28.90
2022-08-07T12:07:53.389Z,28.90
2022-08-07T12:10:47.163Z,29.20
2022-08-07T12:13:35.561Z,29.40
2022-08-07T12:16:09.182Z,29.50
2022-08-07T12:19:05.417Z,29.50
2022-08-07T12:22:39.355Z,29.80
2022-08-07T12:26:05.338Z,30.00
2022-08-07T12:28:33.579Z,29.80
2022-08-07T12:31:09.293Z,30.10
2022-08-07T12:33:56.549Z,30.10
2022-08-07T12:36:33.276Z,30.00
2022-08-07T12:39:42.807Z,29.80
2022-08-07T12:41:55.461Z,30.10
2022-08-07T12:44:26.242Z,29.60
2022-08-07T12:47:11.492Z,29.30
2022-08-07T12:50:38.420Z,29.30
2022-08-07T12:53:17.785Z,29.70
2022-08-07T12:56:09.153Z,30.00
2022-08-07T12:58:40.428Z,30.20
2022-08-07T13:01:42.672Z,29.70
2022-08-07T13:04:31.587Z,29.10
2022-08-07T13:08:14.442Z,29.30
2022-08-07T13:10:39.391Z,29.80
2022-08-07T13:13:47.254Z,29.60
2022-08-07T13:16:46.905Z,29.50
2022-08-07T13:19:45.594Z,29.20
2022-08-07T13:22:40.153Z,29.40
2022-08-07T13:25:29.577Z,29.50
2022-08-07T13:28:10.789Z,29.60
2022-08-07T13:30:48.917Z,29.40
2022-08-07T13:34:31.337Z,29.30
2022-08-07T13:36:30.427Z,29.40
2022-08-07T13:39:12.700Z,29.30
2022-08-07T13:41:47.555Z,29.50
2022-08-07T13:44:34.188Z,29.60
2022-08-07T13:47:04.787Z,29.50
2022-08-07T13:50:33.342Z,29.50
2022-08-07T13:52:39.578Z,29.60
2022-08-07T13:55:19.500Z,29.80
2022-08-07T13:58:31.480Z,29.80
2022-08-07T14:01:13.701Z,29.90
2022-08-07T14:04:07.731Z,29.40
2022-08-07T14:06:34.495Z,29.30
2022-08-07T14:09:04.570Z,29.60
2022-08-07T14:11:53.411Z,29.70
2022-08-07T14:14:33.499Z,29.80
2022-08-07T14:17:32.066Z,29.90
2022-08-07T14:20:40.087Z,29.80
2022-08-07T14:22:40.107Z,29.80
2022-08-07T14:25:11.994Z,29.80
2022-08-07T14:30:34.284Z,29.70
2022-08-07T14:33:04.645Z,29.70
2022-08-07T14:35:44.938Z,29.80
2022-08-07T14:38:24.777Z,29.90
2022-08-07T14:41:02.145Z,29.90
2022-08-07T14:43:58.299Z,29.90
2022-08-07T14:46:31.041Z,29.90
2022-08-07T14:49:17.191Z,30.10
2022-08-07T14:54:41.683Z,30.30
2022-08-07T14:57:19.587Z,30.30
2022-08-07T15:00:04.614Z,30.80
2022-08-07T15:02:34.559Z,31.50
2022-08-07T15:05:03.195Z,32.90
2022-08-07T15:07:47.183Z,34.40
2022-08-07T15:10:26.077Z,34.70
2022-08-07T15:13:19.845Z,34.70
2022-08-07T15:15:52.179Z,34.80
2022-08-07T15:18:41.826Z,34.40
2022-08-07T15:25:13.345Z,34.00
2022-08-07T15:27:05.818Z,34.50
2022-08-07T15:30:08.531Z,33.90
2022-08-07T15:32:39.451Z,33.00
2022-08-07T15:35:14.613Z,31.80
2022-08-07T15:38:17.457Z,31.00
2022-08-07T15:41:00.294Z,30.60
2022-08-07T15:43:53.116Z,30.40
2022-08-07T15:49:15.210Z,30.10
2022-08-07T15:54:31.077Z,30.00
2022-08-07T15:57:06.442Z,30.20
2022-08-07T15:59:40.023Z,30.00
2022-08-07T16:02:23.494Z,30.10
2022-08-07T16:04:57.956Z,30.00
2022-08-07T16:08:31.234Z,29.80
2022-08-07T16:10:27.988Z,29.80
2022-08-07T16:13:05.390Z,29.90
2022-08-07T16:16:48.186Z,29.80
2022-08-07T16:19:42.759Z,29.40
2022-08-07T16:22:38.160Z,29.40
2022-08-07T16:25:52.485Z,29.20
2022-08-07T16:30:07.534Z,29.20
2022-08-07T16:31:51.900Z,29.10
2022-08-07T16:34:34.072Z,29.00
2022-08-07T16:38:04.536Z,28.90
2022-08-07T16:41:01.450Z,28.90
2022-08-07T16:44:05.577Z,28.70
2022-08-07T16:47:05.594Z,28.70
2022-08-07T16:50:27.884Z,28.40
2022-08-07T16:53:48.187Z,28.40
2022-08-07T16:56:27.570Z,28.30
2022-08-07T16:59:14.265Z,28.20
2022-08-07T17:02:04.898Z,28.10
2022-08-07T17:04:51.122Z,27.90
2022-08-07T17:07:57.639Z,27.90
2022-08-07T17:10:54.653Z,27.80
2022-08-07T17:13:40.387Z,27.80
2022-08-07T17:16:28.706Z,27.70
2022-08-07T17:20:00.388Z,27.70
2022-08-07T17:22:37.738Z,27.60
2022-08-07T17:25:51.442Z,27.50
2022-08-07T17:28:19.754Z,27.50
2022-08-07T17:31:17.014Z,27.50
2022-08-07T17:34:15.601Z,27.50
2022-08-07T17:37:08.838Z,27.40
2022-08-07T17:39:58.505Z,27.30
2022-08-07T17:42:59.303Z,27.20
2022-08-07T17:45:35.301Z,27.20
2022-08-07T17:48:06.732Z,27.00
2022-08-07T17:51:12.722Z,27.00
2022-08-07T17:54:12.484Z,27.00
2022-08-07T17:56:49.692Z,27.00
2022-08-07T17:59:44.403Z,26.90
2022-08-07T18:02:29.283Z,26.90
2022-08-07T18:05:27.100Z,26.80
2022-08-07T18:08:26.032Z,26.70
2022-08-07T18:11:53.933Z,26.60
2022-08-07T18:14:46.418Z,26.50
2022-08-07T18:18:45.426Z,26.40
2022-08-07T18:21:09.697Z,26.30
2022-08-07T18:23:42.335Z,26.30
2022-08-07T18:26:18.235Z,26.20
2022-08-07T18:30:05.701Z,26.20
2022-08-07T18:32:13.538Z,26.20
2022-08-07T18:35:00.890Z,26.00
2022-08-07T18:38:57.910Z,26.00
2022-08-07T18:41:08.186Z,25.90
2022-08-07T18:43:57.510Z,25.90
2022-08-07T18:46:47.539Z,26.00
2022-08-07T18:50:30.517Z,25.80
2022-08-07T18:53:02.954Z,25.80
2022-08-07T18:55:55.360Z,25.80
2022-08-07T18:58:51.237Z,25.80
2022-08-07T19:02:17.043Z,25.80
2022-08-07T19:04:13.684Z,25.70
2022-08-07T19:06:51.352Z,25.60
2022-08-07T19:09:55.512Z,25.60
2022-08-07T19:12:48.787Z,25.50
2022-08-07T19:16:03.685Z,25.40
2022-08-07T19:18:47.878Z,25.30
2022-08-07T19:21:56.035Z,25.30
2022-08-07T19:24:44.545Z,25.20
2022-08-07T19:28:29.978Z,25.20
2022-08-07T19:31:00.766Z,25.20
2022-08-07T19:33:01.974Z,25.10
2022-08-07T19:35:39.091Z,25.10
2022-08-07T19:38:15.709Z,25.10
2022-08-07T19:40:50.504Z,25.10
2022-08-07T19:43:50.075Z,25.10
2022-08-07T19:46:11.799Z,25.10
2022-08-07T19:48:44.460Z,25.10
2022-08-07T19:51:51.282Z,25.10
2022-08-07T19:54:32.447Z,25.10
2022-08-07T19:58:03.121Z,25.10
2022-08-07T19:59:52.966Z,25.10
2022-08-07T20:02:39.836Z,25.10
2022-08-07T20:05:28.168Z,25.10
2022-08-07T20:08:02.386Z,25.00
2022-08-07T20:10:55.444Z,25.00
2022-08-07T20:13:42.375Z,25.00
2022-08-07T20:16:15.953Z,24.90
2022-08-07T20:19:04.466Z,24.90
2022-08-07T20:21:41.702Z,24.70
2022-08-07T20:24:31.572Z,24.70
2022-08-07T20:27:07.458Z,24.60
2022-08-07T20:29:49.157Z,24.60
2022-08-07T20:32:39.643Z,24.50
2022-08-07T20:35:23.426Z,24.40
2022-08-07T20:37:58.508Z,24.30
2022-08-07T20:40:33.230Z,24.20
2022-08-07T20:43:14.399Z,24.10
2022-08-07T20:46:28.389Z,24.10
2022-08-07T20:48:34.207Z,24.00
2022-08-07T20:51:04.104Z,23.90
2022-08-07T20:54:02.992Z,23.90
2022-08-07T20:56:29.069Z,23.90
2022-08-07T20:59:01.669Z,23.80
2022-08-07T21:01:45.216Z,23.80
2022-08-07T21:07:04.466Z,23.80
2022-08-07T21:09:51.660Z,23.80
2022-08-07T21:12:28.487Z,23.80
2022-08-07T21:14:58.606Z,23.70
2022-08-07T21:18:05.819Z,23.70
2022-08-07T21:20:19.091Z,23.60
2022-08-07T21:22:59.235Z,23.60
2022-08-07T21:25:39.135Z,23.60
2022-08-07T21:28:50.408Z,23.60
2022-08-07T21:31:31.210Z,23.60
2022-08-07T21:34:31.760Z,23.50
2022-08-07T21:37:20.255Z,23.50
2022-08-07T21:39:56.813Z,23.50
2022-08-07T21:42:56.233Z,23.50
2022-08-07T21:46:09.720Z,23.40
2022-08-07T21:48:55.830Z,23.30
2022-08-07T21:51:25.473Z,23.30
2022-08-07T21:53:59.555Z,23.20
2022-08-07T21:56:48.302Z,23.20
2022-08-07T22:00:04.925Z,23.10
2022-08-07T22:02:53.334Z,23.10
2022-08-07T22:05:46.238Z,23.00
2022-08-07T22:08:14.393Z,23.10
2022-08-07T22:10:52.359Z,23.00
2022-08-07T22:13:24.248Z,23.00
2022-08-07T22:16:42.881Z,23.00
2022-08-07T22:19:20.030Z,23.00
2022-08-07T22:22:28.536Z,23.00
2022-08-07T22:25:03.379Z,22.90
2022-08-07T22:28:08.349Z,22.90
2022-08-07T22:30:58.873Z,22.90
2022-08-07T22:33:52.845Z,22.80
2022-08-07T22:37:01.086Z,22.80
2022-08-07T22:39:52.473Z,22.70
2022-08-07T22:42:25.885Z,22.70
2022-08-07T22:46:04.404Z,22.60
2022-08-07T22:48:31.394Z,22.50
2022-08-07T22:51:38.387Z,22.50
2022-08-07T22:54:32.774Z,22.50
2022-08-07T22:57:56.792Z,22.50
2022-08-07T23:00:34.585Z,22.60
2022-08-07T23:03:28.361Z,22.70
2022-08-07T23:06:23.862Z,22.70
2022-08-07T23:10:00.640Z,22.60
2022-08-07T23:12:34.331Z,22.50
2022-08-07T23:16:06.031Z,22.50
2022-08-07T23:18:33.785Z,22.40
2022-08-07T23:21:21.206Z,22.30
2022-08-07T23:24:06.527Z,22.30
2022-08-07T23:26:50.407Z,22.20
2022-08-07T23:30:38.234Z,22.10
2022-08-07T23:34:21.611Z,22.10
2022-08-07T23:35:46.683Z,22.00
2022-08-07T23:38:19.390Z,22.00
2022-08-07T23:41:12.515Z,21.90
2022-08-07T23:44:05.269Z,21.80
2022-08-07T23:46:57.987Z,21.80
2022-08-07T23:49:50.965Z,21.70
2022-08-07T23:53:01.105Z,21.70
2022-08-07T23:55:54.290Z,21.70
2022-08-07T23:58:43.220Z,21.60
